Time;durP1;ratioP1;P1;durP2;ratioP2;P2;SDS_P1;SDS_P2;PMS_P1;PMS_P2;Temp;Humidity;BMP_temperature;BMP_pressure;BME280_temperature;BME280_humidity;BME280_pressure;Samples;Min_cycle;Max_cycle;Signal;HPM_P1;HPM_P2
2022/09/19 00:02:17;;;;;;;4.47;1.70;;;;;;;;;;4981827;28;20314;-76
2022/09/19 00:04:42;;;;;;;4.85;1.80;;;;;;;;;;4982286;28;20058;-76
2022/09/19 00:07:08;;;;;;;2.63;1.60;;;;;;;;;;4982166;28;20038;-76
2022/09/19 00:09:33;;;;;;;3.25;1.60;;;;;;;;;;4980259;28;20310;-76
2022/09/19 00:12:00;;;;;;;5.25;1.83;;;;;;;;;;4981185;28;20045;-75
2022/09/19 00:14:29;;;;;;;3.67;1.65;;;;;;;;;;4979612;28;20231;-75
2022/09/19 00:16:59;;;;;;;2.95;1.75;;;;;;;;;;4976555;28;20023;-75
2022/09/19 00:19:25;;;;;;;3.97;1.70;;;;;;;;;;4972626;28;20021;-75
2022/09/19 00:21:54;;;;;;;4.63;1.60;;;;;;;;;;4972273;28;20029;-75
2022/09/19 00:27:06;;;;;;;3.30;1.55;;;;;;;;;;4979994;28;20213;-76
2022/09/19 00:29:33;;;;;;;2.92;1.73;;;;;;;;;;4979587;28;20025;-75
2022/09/19 00:31:59;;;;;;;3.70;1.98;;;;;;;;;;4970782;28;20023;-76
2022/09/19 00:34:25;;;;;;;3.33;1.90;;;;;;;;;;4971149;28;20081;-74
2022/09/19 00:36:51;;;;;;;6.55;1.85;;;;;;;;;;4966825;28;20023;-75
2022/09/19 00:39:18;;;;;;;3.80;1.77;;;;;;;;;;4969046;28;20027;-75
2022/09/19 00:41:46;;;;;;;4.60;1.80;;;;;;;;;;4968121;28;20325;-75
2022/09/19 00:44:26;;;;;;;5.15;1.77;;;;;;;;;;4956696;28;20035;-76
2022/09/19 00:47:00;;;;;;;5.25;2.13;;;;;;;;;;4958303;28;20019;-74
2022/09/19 00:49:29;;;;;;;4.13;2.17;;;;;;;;;;4956994;28;20026;-75
2022/09/19 00:52:00;;;;;;;3.88;1.70;;;;;;;;;;4954340;28;20058;-75
2022/09/19 00:54:31;;;;;;;4.25;1.90;;;;;;;;;;4956486;28;20026;-75
2022/09/19 00:56:57;;;;;;;3.90;2.10;;;;;;;;;;4959311;28;20058;-75
2022/09/19 00:59:26;;;;;;;3.08;1.90;;;;;;;;;;4958626;28;20015;-74
2022/09/19 01:01:54;;;;;;;3.65;1.90;;;;;;;;;;4967131;28;20023;-74
2022/09/19 01:04:27;;;;;;;4.05;1.90;;;;;;;;;;4971728;28;20026;-75
2022/09/19 01:06:56;;;;;;;4.88;1.80;;;;;;;;;;4968269;28;20063;-74
2022/09/19 01:09:50;;;;;;;4.22;1.95;;;;;;;;;;4971759;28;20027;-75
2022/09/19 01:12:18;;;;;;;4.15;2.05;;;;;;;;;;4971447;28;20088;-75
2022/09/19 01:15:12;;;;;;;5.10;2.33;;;;;;;;;;4971488;28;20022;-78
2022/09/19 01:17:47;;;;;;;5.20;2.10;;;;;;;;;;4971104;28;20034;-77
2022/09/19 01:20:30;;;;;;;4.55;2.17;;;;;;;;;;4971283;28;20061;-76
2022/09/19 01:23:25;;;;;;;4.35;2.08;;;;;;;;;;4971390;28;20077;-77
2022/09/19 01:26:06;;;;;;;5.72;2.10;;;;;;;;;;4971845;28;20506;-77
2022/09/19 01:28:55;;;;;;;5.18;2.17;;;;;;;;;;4967484;28;20025;-75
2022/09/19 01:31:26;;;;;;;5.38;2.03;;;;;;;;;;4969980;28;20042;-76
2022/09/19 01:34:18;;;;;;;4.88;2.25;;;;;;;;;;4971613;28;20027;-76
2022/09/19 01:36:52;;;;;;;4.40;2.25;;;;;;;;;;4968744;28;20035;-76
2022/09/19 01:39:23;;;;;;;3.83;2.00;;;;;;;;;;4970670;28;20027;-75
2022/09/19 01:41:53;;;;;;;5.35;2.00;;;;;;;;;;4970818;28;20055;-76
2022/09/19 01:44:22;;;;;;;5.78;2.00;;;;;;;;;;4970600;28;20105;-75
2022/09/19 01:47:20;;;;;;;4.75;2.03;;;;;;;;;;4970971;28;20026;-75
2022/09/19 01:49:52;;;;;;;4.60;2.05;;;;;;;;;;4970195;28;20038;-77
2022/09/19 01:52:38;;;;;;;4.93;2.20;;;;;;;;;;4966529;28;20113;-76
2022/09/19 01:55:18;;;;;;;4.75;2.13;;;;;;;;;;4968399;28;20073;-79
2022/09/19 01:57:57;;;;;;;4.35;2.10;;;;;;;;;;4970692;28;20023;-75
2022/09/19 02:00:24;;;;;;;4.55;2.03;;;;;;;;;;4967849;28;20039;-76
2022/09/19 02:03:14;;;;;;;6.13;2.15;;;;;;;;;;4970283;28;20019;-75
2022/09/19 02:05:51;;;;;;;4.63;2.13;;;;;;;;;;4970523;28;20523;-76
2022/09/19 02:08:35;;;;;;;4.53;2.13;;;;;;;;;;4969800;28;20415;-76
2022/09/19 02:11:09;;;;;;;5.18;2.22;;;;;;;;;;4964649;28;20099;-77
2022/09/19 02:13:36;;;;;;;4.30;2.17;;;;;;;;;;4965442;28;20129;-77
2022/09/19 02:16:09;;;;;;;3.95;2.08;;;;;;;;;;4970581;28;20272;-76
2022/09/19 02:18:49;;;;;;;5.22;2.25;;;;;;;;;;4973828;28;20099;-77
2022/09/19 02:21:21;;;;;;;5.40;2.17;;;;;;;;;;4969629;28;20061;-76
2022/09/19 02:23:52;;;;;;;6.68;2.20;;;;;;;;;;4974788;28;20018;-75
2022/09/19 02:26:21;;;;;;;5.65;2.08;;;;;;;;;;4974729;28;20030;-75
2022/09/19 02:28:52;;;;;;;4.28;1.92;;;;;;;;;;4973744;28;20602;-75
2022/09/19 02:31:19;;;;;;;7.13;2.20;;;;;;;;;;4974039;28;20092;-76
2022/09/19 02:33:46;;;;;;;4.60;2.10;;;;;;;;;;4974291;28;20027;-77
2022/09/19 02:36:16;;;;;;;4.40;2.22;;;;;;;;;;4974357;28;20620;-78
2022/09/19 02:39:00;;;;;;;5.10;2.08;;;;;;;;;;4973266;28;20027;-76
2022/09/19 02:41:36;;;;;;;4.55;2.20;;;;;;;;;;4968367;28;20029;-80
2022/09/19 02:44:19;;;;;;;4.95;2.40;;;;;;;;;;4976573;28;20055;-79
2022/09/19 02:46:44;;;;;;;6.25;2.08;;;;;;;;;;4971084;28;20105;-80
2022/09/19 02:49:29;;;;;;;3.38;1.77;;;;;;;;;;4972898;28;20515;-79
2022/09/19 02:51:59;;;;;;;3.15;1.90;;;;;;;;;;4972417;28;20038;-78
2022/09/19 02:54:33;;;;;;;3.47;2.00;;;;;;;;;;4974181;28;20120;-78
2022/09/19 02:57:08;;;;;;;3.75;1.90;;;;;;;;;;4972838;28;20483;-76
2022/09/19 02:59:36;;;;;;;5.65;2.05;;;;;;;;;;4974372;28;20053;-79
2022/09/19 03:02:36;;;;;;;4.30;2.08;;;;;;;;;;4973564;28;20031;-77
2022/09/19 03:05:09;;;;;;;7.30;3.85;;;;;;;;;;4938660;28;20041;-80
2022/09/19 03:07:49;;;;;;;8.52;2.60;;;;;;;;;;4973525;28;20035;-78
2022/09/19 03:10:20;;;;;;;4.70;2.42;;;;;;;;;;4967927;28;20162;-80
2022/09/19 03:12:53;;;;;;;5.90;2.42;;;;;;;;;;4973812;28;20517;-79
2022/09/19 03:15:26;;;;;;;4.22;2.17;;;;;;;;;;4969177;28;20052;-75
2022/09/19 03:17:53;;;;;;;4.15;2.20;;;;;;;;;;4973735;28;20034;-75
2022/09/19 03:20:22;;;;;;;3.92;2.20;;;;;;;;;;4970193;28;20035;-75
2022/09/19 03:22:48;;;;;;;5.95;2.28;;;;;;;;;;4969172;28;20387;-75
2022/09/19 03:25:14;;;;;;;4.60;2.08;;;;;;;;;;4972950;28;20031;-75
2022/09/19 03:27:40;;;;;;;3.30;1.98;;;;;;;;;;4973147;28;20045;-76
2022/09/19 03:30:09;;;;;;;4.22;1.95;;;;;;;;;;4972024;28;20471;-81
2022/09/19 03:32:36;;;;;;;4.55;1.83;;;;;;;;;;4973280;28;20545;-78
2022/09/19 03:35:04;;;;;;;3.85;2.10;;;;;;;;;;4972936;28;20105;-76
2022/09/19 03:37:32;;;;;;;5.40;2.20;;;;;;;;;;4972559;28;20037;-78
2022/09/19 03:39:58;;;;;;;5.97;2.20;;;;;;;;;;4972860;28;20034;-77
2022/09/19 03:42:27;;;;;;;5.03;2.17;;;;;;;;;;4973199;28;20034;-76
2022/09/19 03:44:54;;;;;;;4.90;1.88;;;;;;;;;;4973072;28;20023;-77
2022/09/19 03:47:21;;;;;;;3.80;2.22;;;;;;;;;;4972594;28;20118;-77
2022/09/19 03:49:50;;;;;;;7.03;2.38;;;;;;;;;;4971273;28;20034;-79
2022/09/19 03:52:18;;;;;;;5.72;2.10;;;;;;;;;;4975654;28;20035;-78
2022/09/19 03:54:44;;;;;;;4.60;2.10;;;;;;;;;;4973062;28;20394;-77
2022/09/19 03:57:12;;;;;;;4.57;2.13;;;;;;;;;;4972615;28;20078;-79
2022/09/19 03:59:41;;;;;;;3.53;1.95;;;;;;;;;;4972550;28;20093;-79
2022/09/19 04:02:07;;;;;;;5.40;2.13;;;;;;;;;;4968771;28;20038;-77
2022/09/19 04:04:33;;;;;;;4.93;2.08;;;;;;;;;;4972462;28;20039;-78
2022/09/19 04:06:59;;;;;;;4.57;2.30;;;;;;;;;;4972376;28;20043;-76
2022/09/19 04:09:25;;;;;;;5.07;1.95;;;;;;;;;;4972406;28;20117;-76
2022/09/19 04:11:51;;;;;;;6.20;2.00;;;;;;;;;;4966480;28;20413;-76
2022/09/19 04:14:17;;;;;;;5.50;2.38;;;;;;;;;;4971727;28;20026;-79
2022/09/19 04:16:42;;;;;;;8.98;2.10;;;;;;;;;;4971947;28;20035;-80
2022/09/19 04:19:09;;;;;;;4.50;1.95;;;;;;;;;;4971253;28;20470;-76
2022/09/19 04:21:35;;;;;;;6.72;2.25;;;;;;;;;;4972031;28;20033;-77
2022/09/19 04:24:01;;;;;;;7.97;2.60;;;;;;;;;;4970917;28;20035;-79
2022/09/19 04:26:27;;;;;;;7.53;2.60;;;;;;;;;;4971253;28;20426;-78
2022/09/19 04:28:53;;;;;;;6.00;2.05;;;;;;;;;;4971431;28;20035;-77
2022/09/19 04:31:18;;;;;;;3.72;2.10;;;;;;;;;;4971816;28;20157;-75
2022/09/19 04:33:44;;;;;;;6.63;2.20;;;;;;;;;;4972124;28;20035;-79
2022/09/19 04:36:09;;;;;;;3.88;2.10;;;;;;;;;;4971531;28;20050;-79
2022/09/19 04:38:36;;;;;;;7.53;2.10;;;;;;;;;;4972231;28;20062;-79
2022/09/19 04:41:02;;;;;;;4.25;2.15;;;;;;;;;;4971332;28;20174;-77
2022/09/19 04:43:28;;;;;;;5.60;2.13;;;;;;;;;;4972011;28;20661;-79
2022/09/19 04:45:56;;;;;;;5.78;2.25;;;;;;;;;;4971710;28;20499;-80
2022/09/19 04:48:23;;;;;;;5.30;2.42;;;;;;;;;;4971246;28;20554;-79
2022/09/19 04:50:50;;;;;;;8.25;2.75;;;;;;;;;;4971435;28;20122;-78
2022/09/19 04:53:23;;;;;;;4.80;2.28;;;;;;;;;;4970869;28;20058;-79
2022/09/19 04:55:53;;;;;;;6.57;2.35;;;;;;;;;;4970484;28;20026;-77
2022/09/19 04:58:19;;;;;;;7.20;2.70;;;;;;;;;;4971206;28;20086;-79
2022/09/19 05:00:53;;;;;;;5.20;2.70;;;;;;;;;;4971238;28;20030;-77
2022/09/19 05:03:20;;;;;;;5.78;2.40;;;;;;;;;;4971432;28;20054;-79
2022/09/19 05:05:50;;;;;;;7.57;2.67;;;;;;;;;;4969813;28;20095;-80
2022/09/19 05:08:20;;;;;;;6.70;2.65;;;;;;;;;;4970900;28;20105;-76
2022/09/19 05:10:47;;;;;;;7.22;2.80;;;;;;;;;;4971006;28;20090;-79
2022/09/19 05:13:13;;;;;;;6.38;2.60;;;;;;;;;;4970442;28;20043;-79
2022/09/19 05:15:41;;;;;;;8.02;2.67;;;;;;;;;;4969569;28;20081;-77
2022/09/19 05:18:08;;;;;;;4.82;2.40;;;;;;;;;;4970932;28;20099;-75
2022/09/19 05:20:35;;;;;;;10.57;2.60;;;;;;;;;;4969248;28;20491;-76
2022/09/19 05:23:00;;;;;;;8.43;2.70;;;;;;;;;;4971010;28;20468;-75
2022/09/19 05:25:27;;;;;;;13.30;2.72;;;;;;;;;;4970723;28;20031;-75
2022/09/19 05:27:54;;;;;;;14.40;3.25;;;;;;;;;;4970519;28;20134;-75
2022/09/19 05:30:23;;;;;;;15.60;3.05;;;;;;;;;;4971057;28;20058;-75
2022/09/19 05:32:48;;;;;;;10.48;3.60;;;;;;;;;;4970834;28;20034;-79
2022/09/19 05:35:14;;;;;;;9.25;2.70;;;;;;;;;;4970384;28;20050;-78
2022/09/19 05:37:45;;;;;;;14.75;3.97;;;;;;;;;;4969422;28;20414;-75
2022/09/19 05:40:10;;;;;;;9.52;3.25;;;;;;;;;;4970238;28;20041;-79
2022/09/19 05:42:43;;;;;;;7.57;3.00;;;;;;;;;;4970705;28;20027;-75
2022/09/19 05:45:11;;;;;;;9.23;2.90;;;;;;;;;;4970184;28;20031;-75
2022/09/19 05:47:39;;;;;;;12.25;3.10;;;;;;;;;;4964873;28;20482;-76
2022/09/19 05:50:09;;;;;;;15.15;3.88;;;;;;;;;;4970379;28;20042;-77
2022/09/19 05:55:20;;;;;;;16.25;3.28;;;;;;;;;;4970940;28;20049;-74
2022/09/19 05:57:53;;;;;;;12.25;3.38;;;;;;;;;;4969077;28;20038;-74
2022/09/19 06:00:25;;;;;;;15.75;2.95;;;;;;;;;;4969840;28;20019;-74
2022/09/19 06:02:55;;;;;;;12.10;3.42;;;;;;;;;;4979708;28;20035;-75
2022/09/19 06:05:21;;;;;;;18.83;3.20;;;;;;;;;;4960558;28;20105;-73
2022/09/19 06:07:47;;;;;;;11.95;3.10;;;;;;;;;;4956259;28;20415;-74
2022/09/19 06:10:12;;;;;;;10.07;2.83;;;;;;;;;;4958834;28;20486;-75
2022/09/19 06:12:38;;;;;;;9.30;2.88;;;;;;;;;;4954130;28;20479;-74
2022/09/19 06:15:04;;;;;;;11.68;3.00;;;;;;;;;;4956496;28;20023;-74
2022/09/19 06:17:29;;;;;;;13.13;3.28;;;;;;;;;;4956625;28;20093;-74
2022/09/19 06:19:54;;;;;;;9.30;2.90;;;;;;;;;;4958072;28;20027;-73
2022/09/19 06:22:20;;;;;;;11.77;3.60;;;;;;;;;;4956807;28;20054;-73
2022/09/19 06:24:45;;;;;;;12.88;3.25;;;;;;;;;;4953504;28;20051;-74
2022/09/19 06:27:11;;;;;;;10.75;3.70;;;;;;;;;;4957355;28;20059;-77
2022/09/19 06:29:37;;;;;;;20.23;4.32;;;;;;;;;;4954602;28;20026;-77
2022/09/19 06:32:02;;;;;;;29.20;4.97;;;;;;;;;;4956194;28;20764;-73
2022/09/19 06:34:27;;;;;;;32.42;5.22;;;;;;;;;;4956594;28;20821;-74
2022/09/19 06:36:53;;;;;;;20.73;4.35;;;;;;;;;;4957005;28;20034;-73
2022/09/19 06:39:18;;;;;;;15.18;4.30;;;;;;;;;;4958851;28;20027;-73
2022/09/19 06:41:46;;;;;;;11.00;4.13;;;;;;;;;;4954010;28;20042;-76
2022/09/19 06:44:12;;;;;;;13.82;4.15;;;;;;;;;;4961571;28;20045;-74
2022/09/19 06:46:38;;;;;;;7.40;3.80;;;;;;;;;;4969485;28;20094;-77
2022/09/19 06:49:03;;;;;;;7.78;3.55;;;;;;;;;;4963355;28;20031;-74
2022/09/19 06:51:30;;;;;;;10.65;3.80;;;;;;;;;;4959868;28;20468;-74
2022/09/19 06:53:55;;;;;;;11.10;3.90;;;;;;;;;;4967055;28;20042;-74
2022/09/19 06:56:20;;;;;;;11.77;4.13;;;;;;;;;;4970425;28;20023;-76
2022/09/19 06:58:46;;;;;;;10.75;4.13;;;;;;;;;;4964857;28;20027;-73
2022/09/19 07:01:11;;;;;;;9.95;4.10;;;;;;;;;;4969746;28;20046;-76
2022/09/19 07:03:41;;;;;;;10.15;4.13;;;;;;;;;;4971357;28;20101;-75
2022/09/19 07:06:06;;;;;;;7.03;3.95;;;;;;;;;;4972119;28;20039;-76
2022/09/19 07:08:32;;;;;;;10.85;4.55;;;;;;;;;;4972572;28;20365;-76
2022/09/19 07:10:58;;;;;;;13.20;4.18;;;;;;;;;;4972552;28;20423;-74
2022/09/19 07:13:23;;;;;;;8.80;4.40;;;;;;;;;;4973358;28;20023;-77
2022/09/19 07:15:48;;;;;;;10.95;4.40;;;;;;;;;;4973544;28;20018;-77
2022/09/19 07:18:14;;;;;;;8.35;4.07;;;;;;;;;;4973268;28;20026;-77
2022/09/19 07:20:40;;;;;;;9.98;4.20;;;;;;;;;;4973202;28;20034;-75
2022/09/19 07:23:17;;;;;;;11.40;4.30;;;;;;;;;;4976465;28;20058;-74
2022/09/19 07:25:43;;;;;;;12.00;4.13;;;;;;;;;;4979230;28;20026;-74
2022/09/19 07:28:11;;;;;;;9.65;4.22;;;;;;;;;;4978770;28;20015;-75
2022/09/19 07:30:37;;;;;;;7.95;4.00;;;;;;;;;;4976581;28;20029;-78
2022/09/19 07:33:05;;;;;;;13.15;4.50;;;;;;;;;;4977056;28;20038;-75
2022/09/19 07:35:35;;;;;;;11.85;3.92;;;;;;;;;;4973008;28;20534;-76
2022/09/19 07:38:01;;;;;;;11.27;3.90;;;;;;;;;;4971939;28;20030;-75
2022/09/19 07:40:27;;;;;;;8.10;3.80;;;;;;;;;;4971365;28;20029;-77
2022/09/19 07:42:58;;;;;;;9.57;4.35;;;;;;;;;;4970490;28;20489;-74
2022/09/19 07:45:23;;;;;;;8.13;3.80;;;;;;;;;;4969693;28;20183;-76
2022/09/19 07:47:48;;;;;;;11.05;4.13;;;;;;;;;;4971767;28;20114;-76
2022/09/19 07:50:18;;;;;;;8.85;3.92;;;;;;;;;;4970898;28;20029;-74
2022/09/19 07:52:46;;;;;;;7.07;3.42;;;;;;;;;;4971868;28;20027;-76
2022/09/19 07:55:15;;;;;;;9.40;3.85;;;;;;;;;;4973007;28;20022;-77
2022/09/19 07:57:51;;;;;;;10.95;3.70;;;;;;;;;;4973051;28;20045;-75
2022/09/19 08:00:17;;;;;;;8.23;3.75;;;;;;;;;;4972694;28;20023;-79
2022/09/19 08:02:42;;;;;;;10.05;3.40;;;;;;;;;;4972835;28;20532;-77
2022/09/19 08:05:08;;;;;;;8.85;3.10;;;;;;;;;;4972541;28;20117;-75
2022/09/19 08:07:33;;;;;;;13.00;3.25;;;;;;;;;;4972629;28;20487;-78
2022/09/19 08:09:59;;;;;;;10.52;3.50;;;;;;;;;;4972467;28;20026;-79
2022/09/19 08:12:25;;;;;;;8.27;3.30;;;;;;;;;;4972599;28;20034;-80
2022/09/19 08:14:50;;;;;;;6.93;3.08;;;;;;;;;;4970305;28;20027;-78
2022/09/19 08:17:15;;;;;;;11.02;3.38;;;;;;;;;;4972663;28;20026;-80
2022/09/19 08:19:41;;;;;;;10.32;3.30;;;;;;;;;;4972317;28;20081;-78
2022/09/19 08:22:06;;;;;;;10.23;2.97;;;;;;;;;;4970660;28;20080;-79
2022/09/19 08:24:31;;;;;;;7.90;2.58;;;;;;;;;;4972224;28;20031;-74
2022/09/19 08:26:58;;;;;;;8.23;2.50;;;;;;;;;;4972999;28;20038;-75
2022/09/19 08:29:23;;;;;;;5.72;2.50;;;;;;;;;;4972172;28;20109;-79
2022/09/19 08:31:51;;;;;;;7.55;2.22;;;;;;;;;;4972018;28;20115;-78
2022/09/19 08:34:16;;;;;;;7.47;2.20;;;;;;;;;;4972333;28;20041;-77
2022/09/19 08:36:41;;;;;;;6.80;2.30;;;;;;;;;;4972466;28;20027;-76
2022/09/19 08:39:07;;;;;;;7.53;2.10;;;;;;;;;;4965990;28;20117;-79
2022/09/19 08:41:33;;;;;;;8.40;2.20;;;;;;;;;;4972227;28;20046;-77
2022/09/19 08:44:50;;;;;;;10.52;2.40;;;;;;;;;;4962819;28;20027;-76
2022/09/19 08:47:20;;;;;;;13.25;2.50;;;;;;;;;;4955021;28;20057;-76
2022/09/19 08:49:59;;;;;;;18.85;2.75;;;;;;;;;;4971584;28;20093;-77
2022/09/19 08:52:44;;;;;;;8.48;2.40;;;;;;;;;;4969530;28;20535;-79
2022/09/19 08:55:23;;;;;;;9.32;1.85;;;;;;;;;;4970928;28;20530;-78
2022/09/19 08:57:57;;;;;;;7.20;2.55;;;;;;;;;;4971524;28;20027;-77
2022/09/19 09:00:23;;;;;;;12.27;2.20;;;;;;;;;;4971856;28;20121;-79
2022/09/19 09:02:51;;;;;;;7.20;2.15;;;;;;;;;;4971656;28;20092;-77
2022/09/19 09:05:45;;;;;;;7.15;1.98;;;;;;;;;;4971833;28;20030;-79
2022/09/19 09:08:30;;;;;;;12.02;2.63;;;;;;;;;;4969330;28;20047;-73
2022/09/19 09:11:09;;;;;;;16.42;2.53;;;;;;;;;;4971502;28;20057;-74
2022/09/19 09:13:51;;;;;;;8.80;2.17;;;;;;;;;;4971426;28;20061;-74
2022/09/19 09:16:27;;;;;;;7.15;1.95;;;;;;;;;;4966858;28;20049;-74
2022/09/19 09:19:02;;;;;;;8.65;2.30;;;;;;;;;;4965756;28;20598;-75
2022/09/19 09:21:52;;;;;;;8.07;1.90;;;;;;;;;;4971442;28;20031;-75
2022/09/19 09:24:22;;;;;;;5.32;1.70;;;;;;;;;;4971352;28;20077;-74
2022/09/19 09:26:52;;;;;;;6.70;1.60;;;;;;;;;;4967273;28;20031;-74
2022/09/19 09:29:33;;;;;;;7.30;1.63;;;;;;;;;;4965216;28;20458;-74
2022/09/19 09:32:16;;;;;;;5.95;1.73;;;;;;;;;;4971326;28;20573;-74
2022/09/19 09:34:49;;;;;;;5.53;1.58;;;;;;;;;;4970985;28;20110;-74
2022/09/19 09:37:40;;;;;;;10.30;1.50;;;;;;;;;;4970635;28;20030;-74
2022/09/19 09:40:13;;;;;;;6.50;1.60;;;;;;;;;;4959561;28;20043;-74
2022/09/19 09:42:45;;;;;;;6.65;1.88;;;;;;;;;;4966788;28;20023;-75
2022/09/19 09:45:22;;;;;;;6.60;1.48;;;;;;;;;;4969912;28;20027;-74
2022/09/19 09:48:08;;;;;;;5.53;1.40;;;;;;;;;;4968355;28;20023;-74
2022/09/19 09:50:49;;;;;;;4.13;1.40;;;;;;;;;;4968538;28;20258;-74
2022/09/19 09:53:40;;;;;;;7.63;1.45;;;;;;;;;;4971229;28;20019;-75
2022/09/19 09:56:15;;;;;;;5.40;1.52;;;;;;;;;;4970951;28;20050;-77
2022/09/19 09:58:58;;;;;;;7.80;2.08;;;;;;;;;;4970876;28;20081;-79
2022/09/19 10:04:25;;;;;;;6.93;1.50;;;;;;;;;;4970240;28;20033;-81
2022/09/19 10:07:12;;;;;;;4.97;1.38;;;;;;;;;;4970697;28;20392;-76
2022/09/19 10:09:44;;;;;;;5.20;1.50;;;;;;;;;;4969857;28;20105;-77
2022/09/19 10:12:21;;;;;;;6.15;1.50;;;;;;;;;;4970980;28;20108;-76
2022/09/19 10:14:48;;;;;;;6.25;1.58;;;;;;;;;;4970472;28;20031;-78
2022/09/19 10:17:19;;;;;;;5.20;1.40;;;;;;;;;;4970595;28;20018;-76
2022/09/19 10:19:52;;;;;;;4.05;1.20;;;;;;;;;;4970212;28;20471;-78
2022/09/19 10:22:17;;;;;;;5.43;1.35;;;;;;;;;;4970604;28;20027;-79
2022/09/19 10:24:54;;;;;;;5.60;1.30;;;;;;;;;;4970649;28;20395;-81
2022/09/19 10:27:26;;;;;;;3.67;1.27;;;;;;;;;;4970742;28;20027;-78
2022/09/19 10:29:58;;;;;;;3.55;1.17;;;;;;;;;;4970832;28;20054;-77
2022/09/19 10:32:34;;;;;;;4.65;1.20;;;;;;;;;;4969627;28;20031;-78
2022/09/19 10:34:59;;;;;;;10.10;1.30;;;;;;;;;;4970067;28;20065;-74
2022/09/19 10:37:28;;;;;;;3.85;1.20;;;;;;;;;;4971047;28;20055;-74
2022/09/19 10:40:05;;;;;;;2.88;1.10;;;;;;;;;;4973787;28;20105;-80
2022/09/19 10:42:36;;;;;;;4.38;1.38;;;;;;;;;;4974113;28;20117;-80
2022/09/19 10:45:25;;;;;;;4.28;1.30;;;;;;;;;;4972659;28;20387;-79
2022/09/19 10:47:59;;;;;;;4.03;1.10;;;;;;;;;;4972266;28;20211;-77
2022/09/19 10:50:25;;;;;;;4.10;1.13;;;;;;;;;;4973544;28;20454;-76
2022/09/19 10:52:57;;;;;;;3.63;1.17;;;;;;;;;;4974128;28;20091;-77
2022/09/19 10:55:23;;;;;;;9.38;1.50;;;;;;;;;;4974492;28;20027;-77
2022/09/19 10:57:59;;;;;;;6.20;1.20;;;;;;;;;;4974277;28;20510;-77
2022/09/19 11:00:26;;;;;;;5.35;1.10;;;;;;;;;;4972525;28;20379;-77
2022/09/19 11:02:56;;;;;;;5.05;1.40;;;;;;;;;;4974224;28;20038;-78
2022/09/19 11:05:29;;;;;;;5.72;1.27;;;;;;;;;;4971923;28;20031;-74
2022/09/19 11:07:59;;;;;;;3.92;1.20;;;;;;;;;;4972902;28;20031;-79
2022/09/19 11:10:37;;;;;;;4.95;1.40;;;;;;;;;;4967881;28;20033;-77
2022/09/19 11:13:20;;;;;;;7.05;1.30;;;;;;;;;;4972836;28;20435;-76
2022/09/19 11:16:16;;;;;;;7.18;1.35;;;;;;;;;;4973889;28;20026;-80
2022/09/19 11:19:08;;;;;;;5.05;1.40;;;;;;;;;;4971679;28;20027;-78
2022/09/19 11:21:59;;;;;;;4.68;1.10;;;;;;;;;;4973629;28;20027;-80
2022/09/19 11:25:03;;;;;;;3.90;1.40;;;;;;;;;;4979914;28;20030;-75
2022/09/19 11:27:43;;;;;;;3.50;1.20;;;;;;;;;;4949741;28;20050;-77
2022/09/19 11:30:24;;;;;;;6.65;1.20;;;;;;;;;;4969529;28;20061;-77
2022/09/19 11:33:09;;;;;;;4.65;1.30;;;;;;;;;;4969254;28;20065;-77
2022/09/19 11:35:44;;;;;;;4.50;1.10;;;;;;;;;;4973432;28;20467;-80
2022/09/19 11:38:33;;;;;;;6.20;1.30;;;;;;;;;;4973542;28;20459;-76
2022/09/19 11:41:39;;;;;;;3.40;1.00;;;;;;;;;;4968469;28;20110;-77
2022/09/19 11:44:14;;;;;;;3.97;1.10;;;;;;;;;;4973021;28;20106;-75
2022/09/19 11:46:49;;;;;;;;;;;;;;;;;;4968385;28;20472;-74
2022/09/19 11:49:36;;;;;;;4.10;1.10;;;;;;;;;;4972406;28;19910;-76
2022/09/19 11:52:30;;;;;;;5.00;1.27;;;;;;;;;;4973130;28;20114;-77
2022/09/19 11:55:34;;;;;;;5.30;1.30;;;;;;;;;;4968103;28;20364;-77
2022/09/19 11:58:23;;;;;;;6.50;1.27;;;;;;;;;;4972810;28;20030;-76
2022/09/19 12:01:03;;;;;;;2.95;1.02;;;;;;;;;;4969607;28;20475;-77
2022/09/19 12:04:07;;;;;;;3.67;1.00;;;;;;;;;;4972721;28;20042;-77
2022/09/19 12:06:57;;;;;;;3.17;0.93;;;;;;;;;;4966907;28;20027;-79
2022/09/19 12:09:31;;;;;;;3.92;1.10;;;;;;;;;;4971190;28;20018;-76
2022/09/19 12:12:11;;;;;;;3.67;1.25;;;;;;;;;;4972820;28;20035;-79
2022/09/19 12:15:00;;;;;;;4.40;0.88;;;;;;;;;;4970027;28;20054;-77
2022/09/19 12:17:35;;;;;;;3.42;0.90;;;;;;;;;;4972218;28;20086;-79
2022/09/19 12:20:26;;;;;;;3.10;1.05;;;;;;;;;;4971928;28;20490;-80
2022/09/19 12:24:52;;;;;;;6.45;1.52;;;;;;;;;;4967618;28;20031;-78
2022/09/19 12:25:46;;;;;;;6.78;1.30;;;;;;;;;;4970652;28;20023;-80
2022/09/19 12:28:15;;;;;;;3.15;1.05;;;;;;;;;;4972508;28;20525;-74
2022/09/19 12:30:46;;;;;;;4.78;1.30;;;;;;;;;;4972337;28;20093;-76
2022/09/19 12:33:49;;;;;;;5.93;1.00;;;;;;;;;;4970738;28;20058;-79
2022/09/19 12:36:44;;;;;;;6.70;1.20;;;;;;;;;;4968581;28;20031;-76
2022/09/19 12:39:26;;;;;;;5.13;1.13;;;;;;;;;;4972116;28;20034;-78
2022/09/19 12:42:08;;;;;;;5.00;1.02;;;;;;;;;;4968011;28;20031;-78
2022/09/19 12:44:38;;;;;;;8.43;1.10;;;;;;;;;;4972002;28;20038;-78
2022/09/19 12:47:25;;;;;;;7.40;1.30;;;;;;;;;;4972045;28;20098;-81
2022/09/19 12:49:58;;;;;;;2.50;1.08;;;;;;;;;;4971761;28;20026;-78
2022/09/19 12:52:33;;;;;;;3.33;1.00;;;;;;;;;;4969859;28;20296;-78
2022/09/19 12:55:23;;;;;;;6.05;1.20;;;;;;;;;;4971799;28;20054;-77
2022/09/19 12:58:01;;;;;;;7.03;1.20;;;;;;;;;;4971612;28;20026;-75
2022/09/19 13:00:28;;;;;;;4.78;1.17;;;;;;;;;;4972244;28;20196;-74
2022/09/19 13:03:25;;;;;;;3.33;1.10;;;;;;;;;;4971319;28;20428;-74
2022/09/19 13:06:00;;;;;;;8.73;1.20;;;;;;;;;;4967806;28;20139;-75
2022/09/19 13:08:35;;;;;;;3.92;1.05;;;;;;;;;;4971353;28;20129;-75
2022/09/19 13:11:13;;;;;;;;;;;;;;;;;;4971830;28;20034;-75
2022/09/19 13:14:14;;;;;;;5.88;1.10;;;;;;;;;;4970112;28;20326;-75
2022/09/19 13:23:30;;;;;;;4.88;1.30;;;;;;;;;;4955886;28;20043;-74
2022/09/19 13:24:47;;;;;;;11.80;1.20;;;;;;;;;;4971109;28;20502;-74
2022/09/19 13:27:14;;;;;;;7.13;1.30;;;;;;;;;;4966144;28;20396;-74
2022/09/19 13:29:43;;;;;;;3.55;1.20;;;;;;;;;;4971335;28;20026;-79
2022/09/19 13:32:34;;;;;;;3.88;1.13;;;;;;;;;;4968845;28;20031;-78
2022/09/19 13:35:03;;;;;;;5.80;1.17;;;;;;;;;;4970983;28;20031;-77
2022/09/19 13:37:28;;;;;;;4.90;1.15;;;;;;;;;;4971107;28;20525;-77
2022/09/19 13:40:05;;;;;;;3.95;1.30;;;;;;;;;;4965076;28;20031;-77
2022/09/19 13:42:40;;;;;;;3.78;1.15;;;;;;;;;;4965185;28;20081;-78
2022/09/19 13:45:27;;;;;;;2.45;1.17;;;;;;;;;;4970712;28;20386;-74
2022/09/19 13:48:04;;;;;;;4.30;1.20;;;;;;;;;;4968679;28;20112;-76
2022/09/19 13:50:33;;;;;;;11.95;1.30;;;;;;;;;;4970585;28;20383;-75
2022/09/19 13:53:04;;;;;;;5.03;1.30;;;;;;;;;;4970616;28;20054;-75
2022/09/19 13:55:41;;;;;;;4.97;1.60;;;;;;;;;;4970808;28;20031;-76
2022/09/19 13:58:31;;;;;;;5.38;1.20;;;;;;;;;;4971112;28;20082;-75
2022/09/19 14:01:16;;;;;;;6.10;1.45;;;;;;;;;;4968196;28;20084;-76
2022/09/19 14:04:52;;;;;;;4.20;1.20;;;;;;;;;;4970451;28;20034;-77
2022/09/19 14:06:59;;;;;;;6.38;1.00;;;;;;;;;;4968161;28;20107;-77
2022/09/19 14:09:31;;;;;;;5.97;1.20;;;;;;;;;;4970699;28;20027;-77
2022/09/19 14:11:58;;;;;;;6.13;1.00;;;;;;;;;;4970383;28;20106;-74
2022/09/19 14:14:40;;;;;;;4.32;1.23;;;;;;;;;;4973476;28;20467;-74
2022/09/19 14:17:18;;;;;;;3.72;1.30;;;;;;;;;;4968927;28;20018;-75
2022/09/19 14:19:48;;;;;;;2.60;1.17;;;;;;;;;;4973786;28;20037;-76
2022/09/19 14:22:34;;;;;;;3.67;1.20;;;;;;;;;;4968375;28;20038;-74
2022/09/19 14:25:18;;;;;;;8.65;1.30;;;;;;;;;;4974458;28;20498;-79
2022/09/19 14:27:59;;;;;;;4.13;1.13;;;;;;;;;;4968590;28;20387;-78
2022/09/19 14:31:06;;;;;;;4.20;1.10;;;;;;;;;;4974013;28;20043;-76
2022/09/19 14:33:57;;;;;;;3.40;1.30;;;;;;;;;;4969958;28;20054;-78
2022/09/19 14:36:51;;;;;;;6.18;1.20;;;;;;;;;;4974348;28;20127;-79
2022/09/19 14:39:22;;;;;;;6.55;1.10;;;;;;;;;;4968047;28;20077;-78
2022/09/19 14:41:56;;;;;;;3.45;1.05;;;;;;;;;;4972670;28;20034;-75
2022/09/19 14:44:50;;;;;;;4.28;1.15;;;;;;;;;;4969445;28;20093;-75
2022/09/19 14:47:35;;;;;;;5.80;1.20;;;;;;;;;;4974044;28;20449;-80
2022/09/19 14:50:08;;;;;;;4.15;1.25;;;;;;;;;;4968513;28;20089;-83
2022/09/19 14:52:39;;;;;;;3.90;1.10;;;;;;;;;;4973410;28;20057;-81
2022/09/19 14:55:13;;;;;;;3.25;1.00;;;;;;;;;;4972499;28;20382;-81
2022/09/19 14:57:50;;;;;;;4.88;1.15;;;;;;;;;;4974581;28;20366;-80
2022/09/19 15:00:24;;;;;;;3.95;1.20;;;;;;;;;;4973867;28;20019;-80
2022/09/19 15:02:50;;;;;;;4.85;1.20;;;;;;;;;;4974152;28;20385;-76
2022/09/19 15:05:25;;;;;;;4.45;1.10;;;;;;;;;;4973738;28;20034;-77
2022/09/19 15:07:50;;;;;;;4.53;1.25;;;;;;;;;;4971962;28;20038;-79
2022/09/19 15:10:40;;;;;;;4.35;1.08;;;;;;;;;;4973414;28;20042;-76
2022/09/19 15:13:21;;;;;;;4.75;1.00;;;;;;;;;;4973267;28;20055;-74
2022/09/19 15:16:08;;;;;;;2.97;1.00;;;;;;;;;;4972409;28;20031;-78
2022/09/19 15:18:41;;;;;;;4.70;1.00;;;;;;;;;;4973073;28;20106;-78
2022/09/19 15:21:08;;;;;;;4.30;1.00;;;;;;;;;;4974002;28;20121;-79
2022/09/19 15:23:36;;;;;;;3.33;1.10;;;;;;;;;;4973485;28;20468;-75
2022/09/19 15:26:07;;;;;;;3.45;1.10;;;;;;;;;;4972706;28;20107;-80
2022/09/19 15:28:37;;;;;;;5.53;1.13;;;;;;;;;;4973464;28;20499;-81
2022/09/19 15:31:24;;;;;;;5.75;1.08;;;;;;;;;;4971835;28;20467;-81
2022/09/19 15:34:00;;;;;;;3.85;1.05;;;;;;;;;;4971216;28;20495;-82